Suomigracht — PHBT — position and weather

sailwx.info

Track history (hours):
 
Tides and Currents Weather Stations Pressure Air Temp Water Temp Dewpoint Dewpoint Depression Visibility Wind Speed Wind Dir Waves Ship Positions

Suomigracht

Last reported at 2016-Aug-31 04:33 UTC. Time now 2016-Aug-31 06:06 UTC.
Position N 60°26' E 026°55'.

Length 173 m; beam 26 m.

Type: Cargo ship. MMSI: 246100000.

Date/timePositionNaut miles runAvg speedWind from/ knotsBaromVisibWave heightAir tempDewpointWater temp
2016-Aug-31 04:33N 60°26' E 026°55'0 0.0
2016-Aug-31 03:33N 60°26' E 026°55'0 0.0
2016-Aug-31 02:33N 60°26' E 026°55'0 0.0
2016-Aug-31 01:33N 60°26' E 026°55'0 0.0
2016-Aug-31 00:33N 60°26' E 026°55'0 0.0
2016-Aug-30 23:33N 60°26' E 026°55'0 0.0
2016-Aug-30 22:33N 60°26' E 026°55'0 0.0
2016-Aug-30 21:33N 60°26' E 026°55'0 0.0
2016-Aug-30 20:33N 60°26' E 026°55'0 0.0
2016-Aug-30 19:27N 60°26' E 026°55'0 0.0
2016-Aug-30 18:33N 60°26' E 026°55'0 0.1
2016-Aug-30 17:33N 60°26' E 026°55'9 8.7
2016-Aug-30 16:33N 60°21' E 026°40'1414.0
2016-Aug-30 15:33N 60°11' E 026°22'5115.7
2016-Aug-30 12:18N 59°52' E 024°47'1717.9
2016-Aug-30 11:21N 59°49' E 024°14'1213.3
2016-Aug-30 10:27N 59°59' E 024°02'4 4.0
2016-Aug-30 09:33N 60°01' E 023°56'0 0.0
2016-Aug-30 08:30N 60°01' E 023°56'0 0.0
2016-Aug-30 07:33N 60°01' E 023°56'0 0.0
2016-Aug-30 06:30N 60°01' E 023°56'0 0.0
2016-Aug-30 05:33N 60°01' E 023°56'0 0.0
2016-Aug-30 04:33N 60°01' E 023°56'0 0.0
2016-Aug-30 03:33N 60°01' E 023°56'0 0.0
2016-Aug-30 02:33N 60°01' E 023°56'0 0.0
2016-Aug-30 01:33N 60°01' E 023°56'0 0.0
2016-Aug-30 00:32N 60°01' E 023°56'0 0.0
2016-Aug-29 23:32N 60°01' E 023°56'0 0.0
2016-Aug-29 22:32N 60°01' E 023°56'0 0.0
2016-Aug-29 21:32N 60°01' E 023°56'0 0.0
2016-Aug-29 20:32N 60°01' E 023°56'0 0.0
2016-Aug-29 19:32N 60°01' E 023°56'0 0.0
2016-Aug-29 18:32N 60°01' E 023°56'0 0.0
2016-Aug-29 17:32N 60°01' E 023°56'0 0.0
2016-Aug-29 16:32N 60°01' E 023°56'0 0.0
2016-Aug-29 15:32N 60°01' E 023°56'0 0.0
2016-Aug-29 14:32N 60°01' E 023°56'0 0.0
2016-Aug-29 13:32N 60°01' E 023°56'0 0.0
2016-Aug-29 12:32N 60°01' E 023°56'0 0.0
2016-Aug-29 11:32N 60°01' E 023°56'0 0.0
2016-Aug-29 10:32N 60°01' E 023°56'0 0.0
2016-Aug-29 09:32N 60°01' E 023°56'0 0.0
2016-Aug-29 08:32N 60°01' E 023°56'0 0.0
2016-Aug-29 07:32N 60°01' E 023°56'0 0.0
2016-Aug-29 06:32N 60°01' E 023°56'0 0.0
2016-Aug-29 05:32N 60°01' E 023°56'0 0.0
2016-Aug-29 04:29N 60°01' E 023°56'0 0.0
2016-Aug-29 03:32N 60°01' E 023°56'0 0.0
2016-Aug-29 02:32N 60°01' E 023°56'0 0.0
2016-Aug-29 01:32N 60°01' E 023°56'0 0.0
2016-Aug-29 00:32N 60°01' E 023°56'0 0.0
2016-Aug-28 23:32N 60°01' E 023°56'0 0.0
2016-Aug-28 22:32N 60°01' E 023°56'0 0.0
2016-Aug-28 21:32N 60°01' E 023°56'0 0.0
2016-Aug-28 20:32N 60°01' E 023°56'0 0.0
2016-Aug-28 19:32N 60°01' E 023°56'0 0.0
2016-Aug-28 18:32N 60°01' E 023°56'0 0.0
2016-Aug-28 17:32N 60°01' E 023°56'0 0.0
2016-Aug-28 16:32N 60°01' E 023°56'0 0.0
2016-Aug-28 15:32N 60°01' E 023°56'0 0.0
2016-Aug-28 14:32N 60°01' E 023°56'0 0.0
2016-Aug-28 13:32N 60°01' E 023°56'0 0.0
2016-Aug-28 12:32N 60°01' E 023°56'0 0.0
2016-Aug-28 11:31N 60°01' E 023°56'0 0.0
2016-Aug-28 10:31N 60°01' E 023°56'0 0.0
2016-Aug-28 09:31N 60°01' E 023°56'0 0.0
2016-Aug-28 08:31N 60°01' E 023°56'0 0.0
2016-Aug-28 07:31N 60°01' E 023°56'0 0.0
2016-Aug-28 06:31N 60°01' E 023°56'0 0.0
2016-Aug-28 05:31N 60°01' E 023°56'12 0.9
2016-Aug-27 16:08N 59°51' E 024°09'5 9.2
2016-Aug-27 15:33N 59°46' E 024°04'10 9.3
2016-Aug-27 14:27N 59°38' E 023°52'1111.8
2016-Aug-27 13:31N 59°36' E 023°31'  
2016-Aug-23 04:33N 55°30' E 014°59'1818.2
2016-Aug-23 03:34N 55°19' E 014°33'1817.9
2016-Aug-23 02:33N 55°05' E 014°13'1817.5
2016-Aug-23 01:33N 54°57' E 013°46'2418.4
2016-Aug-23 00:16N 54°50' E 013°06'1318.0
2016-Aug-22 23:33N 54°46' E 012°46'2016.7
2016-Aug-22 22:21N 54°34' E 012°18'1215.4
2016-Aug-22 21:34N 54°25' E 012°03'1716.6
2016-Aug-22 20:34N 54°28' E 011°35'1616.4
2016-Aug-22 19:34N 54°34' E 011°09'1514.7
2016-Aug-22 18:34N 54°45' E 010°51'1414.1
2016-Aug-22 17:34N 54°58' E 010°59'1514.7
2016-Aug-22 16:33N 55°12' E 011°06'  
Track history (hours):
 
Tides and Currents Weather Stations Pressure Air Temp Water Temp Dewpoint Dewpoint Depression Visibility Wind Speed Wind Dir Waves Ship Positions

Suomigracht

Last reported at 2016-Aug-31 04:33 UTC. Time now 2016-Aug-31 06:06 UTC.
Position N 60°26' E 026°55'.

Length 173 m; beam 26 m.

Type: Cargo ship. MMSI: 246100000.

Date/timePositionNaut miles runAvg speedWind from/ knotsBaromVisibWave heightAir tempDewpointWater temp
2016-Aug-31 04:33N 60°26' E 026°55'0 0.0
2016-Aug-31 03:33N 60°26' E 026°55'0 0.0
2016-Aug-31 02:33N 60°26' E 026°55'0 0.0
2016-Aug-31 01:33N 60°26' E 026°55'0 0.0
2016-Aug-31 00:33N 60°26' E 026°55'0 0.0
2016-Aug-30 23:33N 60°26' E 026°55'0 0.0
2016-Aug-30 22:33N 60°26' E 026°55'0 0.0
2016-Aug-30 21:33N 60°26' E 026°55'0 0.0
2016-Aug-30 20:33N 60°26' E 026°55'0 0.0
2016-Aug-30 19:27N 60°26' E 026°55'0 0.0
2016-Aug-30 18:33N 60°26' E 026°55'0 0.1
2016-Aug-30 17:33N 60°26' E 026°55'9 8.7
2016-Aug-30 16:33N 60°21' E 026°40'1414.0
2016-Aug-30 15:33N 60°11' E 026°22'5115.7
2016-Aug-30 12:18N 59°52' E 024°47'1717.9
2016-Aug-30 11:21N 59°49' E 024°14'1213.3
2016-Aug-30 10:27N 59°59' E 024°02'4 4.0
2016-Aug-30 09:33N 60°01' E 023°56'0 0.0
2016-Aug-30 08:30N 60°01' E 023°56'0 0.0
2016-Aug-30 07:33N 60°01' E 023°56'0 0.0
2016-Aug-30 06:30N 60°01' E 023°56'0 0.0
2016-Aug-30 05:33N 60°01' E 023°56'0 0.0
2016-Aug-30 04:33N 60°01' E 023°56'0 0.0
2016-Aug-30 03:33N 60°01' E 023°56'0 0.0
2016-Aug-30 02:33N 60°01' E 023°56'0 0.0
2016-Aug-30 01:33N 60°01' E 023°56'0 0.0
2016-Aug-30 00:32N 60°01' E 023°56'0 0.0
2016-Aug-29 23:32N 60°01' E 023°56'0 0.0
2016-Aug-29 22:32N 60°01' E 023°56'0 0.0
2016-Aug-29 21:32N 60°01' E 023°56'0 0.0
2016-Aug-29 20:32N 60°01' E 023°56'0 0.0
2016-Aug-29 19:32N 60°01' E 023°56'0 0.0
2016-Aug-29 18:32N 60°01' E 023°56'0 0.0
2016-Aug-29 17:32N 60°01' E 023°56'0 0.0
2016-Aug-29 16:32N 60°01' E 023°56'0 0.0
2016-Aug-29 15:32N 60°01' E 023°56'0 0.0
2016-Aug-29 14:32N 60°01' E 023°56'0 0.0
2016-Aug-29 13:32N 60°01' E 023°56'0 0.0
2016-Aug-29 12:32N 60°01' E 023°56'0 0.0
2016-Aug-29 11:32N 60°01' E 023°56'0 0.0
2016-Aug-29 10:32N 60°01' E 023°56'0 0.0
2016-Aug-29 09:32N 60°01' E 023°56'0 0.0
2016-Aug-29 08:32N 60°01' E 023°56'0 0.0
2016-Aug-29 07:32N 60°01' E 023°56'0 0.0
2016-Aug-29 06:32N 60°01' E 023°56'0 0.0
2016-Aug-29 05:32N 60°01' E 023°56'0 0.0
2016-Aug-29 04:29N 60°01' E 023°56'0 0.0
2016-Aug-29 03:32N 60°01' E 023°56'0 0.0
2016-Aug-29 02:32N 60°01' E 023°56'0 0.0
2016-Aug-29 01:32N 60°01' E 023°56'0 0.0
2016-Aug-29 00:32N 60°01' E 023°56'0 0.0
2016-Aug-28 23:32N 60°01' E 023°56'0 0.0
2016-Aug-28 22:32N 60°01' E 023°56'0 0.0
2016-Aug-28 21:32N 60°01' E 023°56'0 0.0
2016-Aug-28 20:32N 60°01' E 023°56'0 0.0
2016-Aug-28 19:32N 60°01' E 023°56'0 0.0
2016-Aug-28 18:32N 60°01' E 023°56'0 0.0
2016-Aug-28 17:32N 60°01' E 023°56'0 0.0
2016-Aug-28 16:32N 60°01' E 023°56'0 0.0
2016-Aug-28 15:32N 60°01' E 023°56'0 0.0
2016-Aug-28 14:32N 60°01' E 023°56'0 0.0
2016-Aug-28 13:32N 60°01' E 023°56'0 0.0
2016-Aug-28 12:32N 60°01' E 023°56'0 0.0
2016-Aug-28 11:31N 60°01' E 023°56'0 0.0
2016-Aug-28 10:31N 60°01' E 023°56'0 0.0
2016-Aug-28 09:31N 60°01' E 023°56'0 0.0
2016-Aug-28 08:31N 60°01' E 023°56'0 0.0
2016-Aug-28 07:31N 60°01' E 023°56'0 0.0
2016-Aug-28 06:31N 60°01' E 023°56'0 0.0
2016-Aug-28 05:31N 60°01' E 023°56'12 0.9
2016-Aug-27 16:08N 59°51' E 024°09'5 9.2
2016-Aug-27 15:33N 59°46' E 024°04'10 9.3
2016-Aug-27 14:27N 59°38' E 023°52'1111.8
2016-Aug-27 13:31N 59°36' E 023°31'  
2016-Aug-23 04:33N 55°30' E 014°59'1818.2
2016-Aug-23 03:34N 55°19' E 014°33'1817.9
2016-Aug-23 02:33N 55°05' E 014°13'1817.5
2016-Aug-23 01:33N 54°57' E 013°46'2418.4
2016-Aug-23 00:16N 54°50' E 013°06'1318.0
2016-Aug-22 23:33N 54°46' E 012°46'2016.7
2016-Aug-22 22:21N 54°34' E 012°18'1215.4
2016-Aug-22 21:34N 54°25' E 012°03'1716.6
2016-Aug-22 20:34N 54°28' E 011°35'1616.4
2016-Aug-22 19:34N 54°34' E 011°09'1514.7
2016-Aug-22 18:34N 54°45' E 010°51'1414.1
2016-Aug-22 17:34N 54°58' E 010°59'1514.7
2016-Aug-22 16:33N 55°12' E 011°06'  

Dump ship's entire track history